LFBC 180900Z AUTO 10005KT 9999 // NSC 05/05 Q1027
LFBD 180900Z AUTO 11006KT CAVOK 05/05 Q1028 NOSIG